sensor_id;sensor_type;location;lat;lon;timestamp;P1;durP1;ratioP1;P2;durP2;ratioP2
49147;SDS011;41980;45.550;12.070;2023-06-22T00:02:07;5.35;;;3.45;;
49147;SDS011;41980;45.550;12.070;2023-06-22T00:08:09;4.35;;;3.55;;
49147;SDS011;41980;45.550;12.070;2023-06-22T00:14:11;4.75;;;3.40;;
49147;SDS011;41980;45.550;12.070;2023-06-22T00:20:13;4.75;;;3.60;;
49147;SDS011;41980;45.550;12.070;2023-06-22T00:26:15;3.78;;;2.83;;
49147;SDS011;41980;45.550;12.070;2023-06-22T00:32:18;4.75;;;3.25;;
49147;SDS011;41980;45.550;12.070;2023-06-22T00:38:22;4.57;;;3.17;;
49147;SDS011;41980;45.550;12.070;2023-06-22T00:44:24;5.95;;;3.90;;
49147;SDS011;41980;45.550;12.070;2023-06-22T00:50:27;3.80;;;3.00;;
49147;SDS011;41980;45.550;12.070;2023-06-22T00:56:34;5.03;;;3.33;;
49147;SDS011;41980;45.550;12.070;2023-06-22T01:02:39;3.97;;;2.83;;
49147;SDS011;41980;45.550;12.070;2023-06-22T01:08:46;4.47;;;2.85;;
49147;SDS011;41980;45.550;12.070;2023-06-22T01:14:55;5.60;;;3.38;;
49147;SDS011;41980;45.550;12.070;2023-06-22T01:21:06;3.72;;;2.72;;
49147;SDS011;41980;45.550;12.070;2023-06-22T01:39:26;3.80;;;2.80;;
49147;SDS011;41980;45.550;12.070;2023-06-22T01:45:30;3.85;;;2.95;;
49147;SDS011;41980;45.550;12.070;2023-06-22T01:51:32;3.60;;;2.80;;
49147;SDS011;41980;45.550;12.070;2023-06-22T01:57:35;5.07;;;2.85;;
49147;SDS011;41980;45.550;12.070;2023-06-22T02:03:41;3.13;;;2.22;;
49147;SDS011;41980;45.550;12.070;2023-06-22T02:09:47;6.13;;;3.00;;
49147;SDS011;41980;45.550;12.070;2023-06-22T02:15:53;4.63;;;3.60;;
49147;SDS011;41980;45.550;12.070;2023-06-22T02:21:56;4.38;;;3.75;;
49147;SDS011;41980;45.550;12.070;2023-06-22T02:27:58;4.70;;;3.70;;
49147;SDS011;41980;45.550;12.070;2023-06-22T02:34:00;6.72;;;4.05;;
49147;SDS011;41980;45.550;12.070;2023-06-22T02:40:02;5.65;;;4.13;;
49147;SDS011;41980;45.550;12.070;2023-06-22T02:46:05;4.57;;;3.90;;
49147;SDS011;41980;45.550;12.070;2023-06-22T02:52:09;5.32;;;4.28;;
49147;SDS011;41980;45.550;12.070;2023-06-22T02:58:12;5.95;;;4.47;;
49147;SDS011;41980;45.550;12.070;2023-06-22T03:04:14;5.85;;;4.05;;
49147;SDS011;41980;45.550;12.070;2023-06-22T03:10:16;8.50;;;4.40;;
49147;SDS011;41980;45.550;12.070;2023-06-22T03:16:19;6.72;;;5.35;;
49147;SDS011;41980;45.550;12.070;2023-06-22T03:22:21;5.75;;;4.22;;
49147;SDS011;41980;45.550;12.070;2023-06-22T03:28:24;7.50;;;5.13;;
49147;SDS011;41980;45.550;12.070;2023-06-22T03:34:26;5.68;;;4.90;;
49147;SDS011;41980;45.550;12.070;2023-06-22T03:40:28;5.50;;;4.13;;
49147;SDS011;41980;45.550;12.070;2023-06-22T03:46:30;5.07;;;3.70;;
49147;SDS011;41980;45.550;12.070;2023-06-22T03:52:33;4.72;;;4.10;;
49147;SDS011;41980;45.550;12.070;2023-06-22T03:58:36;5.10;;;3.60;;
49147;SDS011;41980;45.550;12.070;2023-06-22T04:04:44;4.00;;;3.50;;
49147;SDS011;41980;45.550;12.070;2023-06-22T04:10:46;4.82;;;3.40;;
49147;SDS011;41980;45.550;12.070;2023-06-22T04:16:48;4.90;;;3.83;;
49147;SDS011;41980;45.550;12.070;2023-06-22T04:22:50;6.13;;;4.03;;
49147;SDS011;41980;45.550;12.070;2023-06-22T04:28:52;4.20;;;3.70;;
49147;SDS011;41980;45.550;12.070;2023-06-22T04:34:56;4.93;;;3.53;;
49147;SDS011;41980;45.550;12.070;2023-06-22T04:40:59;9.00;;;4.75;;
49147;SDS011;41980;45.550;12.070;2023-06-22T04:47:03;5.82;;;4.75;;
49147;SDS011;41980;45.550;12.070;2023-06-22T04:53:09;6.72;;;5.35;;
49147;SDS011;41980;45.550;12.070;2023-06-22T04:59:14;5.07;;;4.57;;
49147;SDS011;41980;45.550;12.070;2023-06-22T05:05:19;7.10;;;4.93;;
49147;SDS011;41980;45.550;12.070;2023-06-22T05:11:21;6.07;;;5.35;;
49147;SDS011;41980;45.550;12.070;2023-06-22T05:17:23;5.20;;;4.50;;
49147;SDS011;41980;45.550;12.070;2023-06-22T05:23:26;6.72;;;4.68;;
49147;SDS011;41980;45.550;12.070;2023-06-22T05:29:28;5.13;;;4.13;;
49147;SDS011;41980;45.550;12.070;2023-06-22T05:35:30;5.13;;;3.45;;
49147;SDS011;41980;45.550;12.070;2023-06-22T05:41:32;3.70;;;2.90;;
49147;SDS011;41980;45.550;12.070;2023-06-22T05:47:36;5.15;;;3.88;;
49147;SDS011;41980;45.550;12.070;2023-06-22T05:53:38;6.72;;;3.17;;
49147;SDS011;41980;45.550;12.070;2023-06-22T05:59:40;4.22;;;3.67;;
49147;SDS011;41980;45.550;12.070;2023-06-22T06:05:42;7.95;;;5.32;;
49147;SDS011;41980;45.550;12.070;2023-06-22T06:11:46;4.75;;;4.00;;
49147;SDS011;41980;45.550;12.070;2023-06-22T06:17:49;4.90;;;3.83;;
49147;SDS011;41980;45.550;12.070;2023-06-22T06:23:53;5.38;;;4.32;;
49147;SDS011;41980;45.550;12.070;2023-06-22T06:29:55;5.18;;;4.18;;
49147;SDS011;41980;45.550;12.070;2023-06-22T06:35:57;5.93;;;3.33;;
49147;SDS011;41980;45.550;12.070;2023-06-22T06:41:59;5.15;;;4.07;;
49147;SDS011;41980;45.550;12.070;2023-06-22T06:48:01;5.22;;;3.95;;
49147;SDS011;41980;45.550;12.070;2023-06-22T06:54:04;4.10;;;3.20;;
49147;SDS011;41980;45.550;12.070;2023-06-22T07:00:06;4.47;;;3.97;;
49147;SDS011;41980;45.550;12.070;2023-06-22T07:06:13;6.05;;;3.20;;
49147;SDS011;41980;45.550;12.070;2023-06-22T07:12:15;5.85;;;3.78;;
49147;SDS011;41980;45.550;12.070;2023-06-22T07:18:17;5.40;;;4.05;;
49147;SDS011;41980;45.550;12.070;2023-06-22T07:24:19;4.93;;;3.75;;
49147;SDS011;41980;45.550;12.070;2023-06-22T07:30:22;7.05;;;4.95;;
49147;SDS011;41980;45.550;12.070;2023-06-22T07:36:24;6.57;;;4.47;;
49147;SDS011;41980;45.550;12.070;2023-06-22T07:42:26;7.00;;;3.20;;
49147;SDS011;41980;45.550;12.070;2023-06-22T07:48:30;5.07;;;2.92;;
49147;SDS011;41980;45.550;12.070;2023-06-22T07:54:32;3.65;;;2.88;;
49147;SDS011;41980;45.550;12.070;2023-06-22T08:00:34;4.18;;;3.17;;
49147;SDS011;41980;45.550;12.070;2023-06-22T08:06:36;3.65;;;2.72;;
49147;SDS011;41980;45.550;12.070;2023-06-22T08:12:39;4.10;;;2.42;;
49147;SDS011;41980;45.550;12.070;2023-06-22T08:18:41;5.38;;;3.38;;
49147;SDS011;41980;45.550;12.070;2023-06-22T08:24:43;4.40;;;2.72;;
49147;SDS011;41980;45.550;12.070;2023-06-22T08:30:46;4.38;;;3.08;;
49147;SDS011;41980;45.550;12.070;2023-06-22T08:36:48;5.25;;;2.90;;
49147;SDS011;41980;45.550;12.070;2023-06-22T08:42:52;4.25;;;2.50;;
49147;SDS011;41980;45.550;12.070;2023-06-22T08:48:55;6.53;;;2.95;;
49147;SDS011;41980;45.550;12.070;2023-06-22T08:54:59;4.55;;;2.63;;
49147;SDS011;41980;45.550;12.070;2023-06-22T09:01:01;6.15;;;2.60;;
49147;SDS011;41980;45.550;12.070;2023-06-22T09:07:03;5.15;;;3.17;;
49147;SDS011;41980;45.550;12.070;2023-06-22T09:13:06;5.60;;;3.17;;
49147;SDS011;41980;45.550;12.070;2023-06-22T09:19:08;4.05;;;2.80;;
49147;SDS011;41980;45.550;12.070;2023-06-22T09:25:10;4.57;;;2.70;;
49147;SDS011;41980;45.550;12.070;2023-06-22T09:31:14;4.20;;;2.38;;
49147;SDS011;41980;45.550;12.070;2023-06-22T09:37:17;3.13;;;2.10;;
49147;SDS011;41980;45.550;12.070;2023-06-22T09:43:19;4.85;;;3.38;;
49147;SDS011;41980;45.550;12.070;2023-06-22T09:49:21;4.38;;;3.10;;
49147;SDS011;41980;45.550;12.070;2023-06-22T09:55:24;4.50;;;3.40;;
49147;SDS011;41980;45.550;12.070;2023-06-22T10:01:26;4.45;;;2.95;;
49147;SDS011;41980;45.550;12.070;2023-06-22T10:07:28;5.47;;;3.28;;
49147;SDS011;41980;45.550;12.070;2023-06-22T10:13:30;5.68;;;3.15;;
49147;SDS011;41980;45.550;12.070;2023-06-22T10:19:32;4.40;;;2.78;;
49147;SDS011;41980;45.550;12.070;2023-06-22T10:25:36;7.57;;;3.40;;
49147;SDS011;41980;45.550;12.070;2023-06-22T10:31:38;6.03;;;3.20;;
49147;SDS011;41980;45.550;12.070;2023-06-22T10:37:41;4.80;;;2.80;;
49147;SDS011;41980;45.550;12.070;2023-06-22T10:43:47;6.47;;;3.40;;
49147;SDS011;41980;45.550;12.070;2023-06-22T10:49:50;4.10;;;2.70;;
49147;SDS011;41980;45.550;12.070;2023-06-22T10:55:52;6.45;;;4.25;;
49147;SDS011;41980;45.550;12.070;2023-06-22T11:01:56;4.68;;;3.00;;
49147;SDS011;41980;45.550;12.070;2023-06-22T11:07:59;5.43;;;3.83;;
49147;SDS011;41980;45.550;12.070;2023-06-22T11:14:01;5.78;;;3.47;;
49147;SDS011;41980;45.550;12.070;2023-06-22T11:20:04;5.50;;;3.47;;
49147;SDS011;41980;45.550;12.070;2023-06-22T11:26:11;5.88;;;3.58;;
49147;SDS011;41980;45.550;12.070;2023-06-22T11:32:14;4.90;;;3.30;;
49147;SDS011;41980;45.550;12.070;2023-06-22T11:38:16;3.70;;;2.80;;
49147;SDS011;41980;45.550;12.070;2023-06-22T11:44:18;5.88;;;3.80;;
49147;SDS011;41980;45.550;12.070;2023-06-22T11:50:20;3.80;;;2.88;;
49147;SDS011;41980;45.550;12.070;2023-06-22T11:56:22;6.07;;;3.25;;
49147;SDS011;41980;45.550;12.070;2023-06-22T12:02:24;7.35;;;3.13;;
49147;SDS011;41980;45.550;12.070;2023-06-22T12:08:26;6.55;;;3.60;;
49147;SDS011;41980;45.550;12.070;2023-06-22T12:14:28;4.40;;;3.10;;
49147;SDS011;41980;45.550;12.070;2023-06-22T12:20:30;6.30;;;3.20;;
49147;SDS011;41980;45.550;12.070;2023-06-22T12:26:32;6.25;;;3.30;;
49147;SDS011;41980;45.550;12.070;2023-06-22T12:32:34;7.43;;;3.47;;
49147;SDS011;41980;45.550;12.070;2023-06-22T12:38:36;4.07;;;2.70;;
49147;SDS011;41980;45.550;12.070;2023-06-22T12:44:39;6.22;;;3.58;;
49147;SDS011;41980;45.550;12.070;2023-06-22T12:50:41;4.07;;;3.35;;
49147;SDS011;41980;45.550;12.070;2023-06-22T12:56:43;3.47;;;2.33;;
49147;SDS011;41980;45.550;12.070;2023-06-22T13:02:46;6.03;;;2.95;;
49147;SDS011;41980;45.550;12.070;2023-06-22T13:08:48;5.30;;;3.25;;
49147;SDS011;41980;45.550;12.070;2023-06-22T13:14:50;5.60;;;2.78;;
49147;SDS011;41980;45.550;12.070;2023-06-22T13:20:52;4.15;;;2.85;;
49147;SDS011;41980;45.550;12.070;2023-06-22T13:26:56;6.35;;;2.83;;
49147;SDS011;41980;45.550;12.070;2023-06-22T13:32:59;4.55;;;2.38;;
49147;SDS011;41980;45.550;12.070;2023-06-22T13:39:04;7.95;;;3.13;;
49147;SDS011;41980;45.550;12.070;2023-06-22T13:45:07;5.20;;;2.80;;
49147;SDS011;41980;45.550;12.070;2023-06-22T13:51:12;9.13;;;3.38;;
49147;SDS011;41980;45.550;12.070;2023-06-22T13:57:14;4.65;;;2.28;;
49147;SDS011;41980;45.550;12.070;2023-06-22T14:03:16;4.25;;;2.58;;
49147;SDS011;41980;45.550;12.070;2023-06-22T14:09:18;3.67;;;2.60;;
49147;SDS011;41980;45.550;12.070;2023-06-22T14:15:20;6.05;;;2.88;;
49147;SDS011;41980;45.550;12.070;2023-06-22T14:21:22;4.65;;;3.13;;
49147;SDS011;41980;45.550;12.070;2023-06-22T14:27:24;5.40;;;2.90;;
49147;SDS011;41980;45.550;12.070;2023-06-22T14:33:26;7.50;;;2.40;;
49147;SDS011;41980;45.550;12.070;2023-06-22T14:39:28;4.30;;;2.78;;
49147;SDS011;41980;45.550;12.070;2023-06-22T14:45:31;4.75;;;2.65;;
49147;SDS011;41980;45.550;12.070;2023-06-22T14:51:33;3.58;;;2.60;;
49147;SDS011;41980;45.550;12.070;2023-06-22T14:57:35;4.03;;;1.98;;
49147;SDS011;41980;45.550;12.070;2023-06-22T15:03:37;3.78;;;2.22;;
49147;SDS011;41980;45.550;12.070;2023-06-22T15:09:39;2.90;;;1.90;;
49147;SDS011;41980;45.550;12.070;2023-06-22T15:15:45;5.40;;;2.30;;
49147;SDS011;41980;45.550;12.070;2023-06-22T15:21:48;3.85;;;2.42;;
49147;SDS011;41980;45.550;12.070;2023-06-22T15:27:50;5.20;;;2.10;;
49147;SDS011;41980;45.550;12.070;2023-06-22T15:33:52;3.83;;;2.15;;
49147;SDS011;41980;45.550;12.070;2023-06-22T15:39:54;7.85;;;2.92;;
49147;SDS011;41980;45.550;12.070;2023-06-22T15:45:57;3.00;;;2.20;;
49147;SDS011;41980;45.550;12.070;2023-06-22T15:51:59;4.70;;;2.70;;
49147;SDS011;41980;45.550;12.070;2023-06-22T15:58:01;5.45;;;2.40;;
49147;SDS011;41980;45.550;12.070;2023-06-22T16:04:03;5.05;;;2.47;;
49147;SDS011;41980;45.550;12.070;2023-06-22T16:10:06;4.05;;;2.08;;
49147;SDS011;41980;45.550;12.070;2023-06-22T16:16:09;3.88;;;2.30;;
49147;SDS011;41980;45.550;12.070;2023-06-22T16:22:11;5.57;;;2.30;;
49147;SDS011;41980;45.550;12.070;2023-06-22T16:28:13;5.10;;;2.15;;
49147;SDS011;41980;45.550;12.070;2023-06-22T16:34:15;2.97;;;2.20;;
49147;SDS011;41980;45.550;12.070;2023-06-22T16:40:17;3.00;;;2.03;;
49147;SDS011;41980;45.550;12.070;2023-06-22T16:46:21;5.65;;;2.10;;
49147;SDS011;41980;45.550;12.070;2023-06-22T16:52:26;3.75;;;1.95;;
49147;SDS011;41980;45.550;12.070;2023-06-22T16:58:28;2.83;;;2.00;;
49147;SDS011;41980;45.550;12.070;2023-06-22T17:04:32;4.20;;;2.55;;
49147;SDS011;41980;45.550;12.070;2023-06-22T17:10:36;4.00;;;2.15;;
49147;SDS011;41980;45.550;12.070;2023-06-22T17:16:41;4.47;;;2.67;;
49147;SDS011;41980;45.550;12.070;2023-06-22T17:22:45;3.03;;;2.10;;
49147;SDS011;41980;45.550;12.070;2023-06-22T17:28:48;4.85;;;2.50;;
49147;SDS011;41980;45.550;12.070;2023-06-22T17:34:54;4.53;;;2.70;;
49147;SDS011;41980;45.550;12.070;2023-06-22T17:47:04;4.90;;;1.92;;
49147;SDS011;41980;45.550;12.070;2023-06-22T17:59:13;3.88;;;2.50;;
49147;SDS011;41980;45.550;12.070;2023-06-22T18:05:17;4.65;;;2.55;;
49147;SDS011;41980;45.550;12.070;2023-06-22T18:11:36;3.22;;;2.17;;
49147;SDS011;41980;45.550;12.070;2023-06-22T18:17:43;2.95;;;2.05;;
49147;SDS011;41980;45.550;12.070;2023-06-22T18:23:46;2.78;;;1.98;;
49147;SDS011;41980;45.550;12.070;2023-06-22T18:29:49;2.88;;;1.88;;
49147;SDS011;41980;45.550;12.070;2023-06-22T18:35:53;2.80;;;1.95;;
49147;SDS011;41980;45.550;12.070;2023-06-22T18:41:56;2.70;;;1.50;;
49147;SDS011;41980;45.550;12.070;2023-06-22T18:48:04;3.28;;;1.70;;
49147;SDS011;41980;45.550;12.070;2023-06-22T18:54:08;4.18;;;1.92;;
49147;SDS011;41980;45.550;12.070;2023-06-22T19:00:10;4.57;;;2.30;;
49147;SDS011;41980;45.550;12.070;2023-06-22T19:12:34;3.15;;;1.70;;
49147;SDS011;41980;45.550;12.070;2023-06-22T19:18:38;3.60;;;2.10;;
49147;SDS011;41980;45.550;12.070;2023-06-22T19:30:54;4.25;;;2.10;;
49147;SDS011;41980;45.550;12.070;2023-06-22T19:36:59;3.65;;;2.13;;
49147;SDS011;41980;45.550;12.070;2023-06-22T19:43:05;3.25;;;2.08;;
49147;SDS011;41980;45.550;12.070;2023-06-22T19:49:08;3.38;;;2.10;;
49147;SDS011;41980;45.550;12.070;2023-06-22T19:55:10;3.63;;;2.40;;
49147;SDS011;41980;45.550;12.070;2023-06-22T20:01:16;3.65;;;2.05;;
49147;SDS011;41980;45.550;12.070;2023-06-22T20:07:18;3.97;;;3.20;;
49147;SDS011;41980;45.550;12.070;2023-06-22T20:13:20;3.05;;;2.25;;
49147;SDS011;41980;45.550;12.070;2023-06-22T20:19:33;6.20;;;3.50;;
49147;SDS011;41980;45.550;12.070;2023-06-22T20:25:41;14.07;;;12.02;;
49147;SDS011;41980;45.550;12.070;2023-06-22T20:31:46;7.93;;;5.70;;
49147;SDS011;41980;45.550;12.070;2023-06-22T20:37:48;6.60;;;4.50;;
49147;SDS011;41980;45.550;12.070;2023-06-22T20:43:55;5.47;;;3.40;;
49147;SDS011;41980;45.550;12.070;2023-06-22T20:49:57;5.50;;;3.55;;
49147;SDS011;41980;45.550;12.070;2023-06-22T20:56:00;4.40;;;3.30;;
49147;SDS011;41980;45.550;12.070;2023-06-22T21:02:03;4.82;;;2.92;;
49147;SDS011;41980;45.550;12.070;2023-06-22T21:08:05;5.60;;;3.25;;
49147;SDS011;41980;45.550;12.070;2023-06-22T21:14:07;6.43;;;3.67;;
49147;SDS011;41980;45.550;12.070;2023-06-22T21:20:09;5.30;;;3.42;;
49147;SDS011;41980;45.550;12.070;2023-06-22T21:26:11;6.45;;;3.25;;
49147;SDS011;41980;45.550;12.070;2023-06-22T21:32:14;5.10;;;3.47;;
49147;SDS011;41980;45.550;12.070;2023-06-22T21:38:16;5.50;;;3.05;;
49147;SDS011;41980;45.550;12.070;2023-06-22T21:44:18;6.50;;;3.15;;
49147;SDS011;41980;45.550;12.070;2023-06-22T21:50:20;4.60;;;3.13;;
49147;SDS011;41980;45.550;12.070;2023-06-22T21:56:21;3.38;;;2.70;;
49147;SDS011;41980;45.550;12.070;2023-06-22T22:02:23;4.47;;;3.00;;
49147;SDS011;41980;45.550;12.070;2023-06-22T22:08:26;3.53;;;2.40;;
49147;SDS011;41980;45.550;12.070;2023-06-22T22:14:30;3.28;;;2.60;;
49147;SDS011;41980;45.550;12.070;2023-06-22T22:20:33;6.00;;;2.90;;
49147;SDS011;41980;45.550;12.070;2023-06-22T22:26:36;3.50;;;2.70;;
49147;SDS011;41980;45.550;12.070;2023-06-22T22:32:38;3.65;;;2.42;;
49147;SDS011;41980;45.550;12.070;2023-06-22T22:38:41;4.28;;;2.70;;
49147;SDS011;41980;45.550;12.070;2023-06-22T22:44:44;3.88;;;2.65;;
49147;SDS011;41980;45.550;12.070;2023-06-22T22:50:46;3.70;;;2.75;;
49147;SDS011;41980;45.550;12.070;2023-06-22T22:56:49;3.00;;;2.33;;
49147;SDS011;41980;45.550;12.070;2023-06-22T23:02:51;5.60;;;3.65;;
49147;SDS011;41980;45.550;12.070;2023-06-22T23:08:53;5.65;;;3.22;;
49147;SDS011;41980;45.550;12.070;2023-06-22T23:14:59;4.35;;;2.80;;
49147;SDS011;41980;45.550;12.070;2023-06-22T23:21:02;3.45;;;2.95;;
49147;SDS011;41980;45.550;12.070;2023-06-22T23:27:08;5.68;;;3.60;;
49147;SDS011;41980;45.550;12.070;2023-06-22T23:33:15;7.30;;;3.72;;
49147;SDS011;41980;45.550;12.070;2023-06-22T23:39:18;6.90;;;4.55;;
49147;SDS011;41980;45.550;12.070;2023-06-22T23:45:20;6.30;;;4.43;;
49147;SDS011;41980;45.550;12.070;2023-06-22T23:51:23;8.88;;;5.32;;
49147;SDS011;41980;45.550;12.070;2023-06-22T23:57:28;6.65;;;3.42;;
